sensor_id;sensor_type;location;lat;lon;timestamp;temperature;humidity
12700;DHT22;6414;49.570;6.060;2022-10-15T00:01:13;13.50;99.90
12700;DHT22;6414;49.570;6.060;2022-10-15T00:03:58;13.50;99.90
12700;DHT22;6414;49.570;6.060;2022-10-15T00:06:43;13.50;99.90
12700;DHT22;6414;49.570;6.060;2022-10-15T00:09:29;13.50;99.90
12700;DHT22;6414;49.570;6.060;2022-10-15T00:12:14;13.50;99.90
12700;DHT22;6414;49.570;6.060;2022-10-15T00:14:59;13.40;99.90
12700;DHT22;6414;49.570;6.060;2022-10-15T00:17:44;13.50;99.90
12700;DHT22;6414;49.570;6.060;2022-10-15T00:20:30;13.50;99.90
12700;DHT22;6414;49.570;6.060;2022-10-15T00:23:15;13.50;99.90
12700;DHT22;6414;49.570;6.060;2022-10-15T00:26:02;13.50;99.90
12700;DHT22;6414;49.570;6.060;2022-10-15T00:28:47;13.50;99.90
12700;DHT22;6414;49.570;6.060;2022-10-15T00:31:32;13.50;99.90
12700;DHT22;6414;49.570;6.060;2022-10-15T00:34:17;13.50;99.90
12700;DHT22;6414;49.570;6.060;2022-10-15T00:37:02;13.50;99.90
12700;DHT22;6414;49.570;6.060;2022-10-15T00:39:48;13.50;99.90
12700;DHT22;6414;49.570;6.060;2022-10-15T00:42:33;13.50;99.90
12700;DHT22;6414;49.570;6.060;2022-10-15T00:45:18;13.50;99.90
12700;DHT22;6414;49.570;6.060;2022-10-15T00:48:04;13.50;99.90
12700;DHT22;6414;49.570;6.060;2022-10-15T00:50:49;13.50;99.90
12700;DHT22;6414;49.570;6.060;2022-10-15T00:53:35;13.50;99.90
12700;DHT22;6414;49.570;6.060;2022-10-15T00:56:21;13.50;99.90
12700;DHT22;6414;49.570;6.060;2022-10-15T00:59:06;13.50;99.90
12700;DHT22;6414;49.570;6.060;2022-10-15T01:01:52;13.40;99.90
12700;DHT22;6414;49.570;6.060;2022-10-15T01:04:37;13.40;99.90
12700;DHT22;6414;49.570;6.060;2022-10-15T01:07:22;13.40;99.90
12700;DHT22;6414;49.570;6.060;2022-10-15T01:10:07;13.40;99.90
12700;DHT22;6414;49.570;6.060;2022-10-15T01:13:05;13.40;99.90
12700;DHT22;6414;49.570;6.060;2022-10-15T01:15:52;13.40;99.90
12700;DHT22;6414;49.570;6.060;2022-10-15T01:18:39;13.40;99.90
12700;DHT22;6414;49.570;6.060;2022-10-15T01:21:33;13.40;99.90
12700;DHT22;6414;49.570;6.060;2022-10-15T01:27:24;13.30;99.90
12700;DHT22;6414;49.570;6.060;2022-10-15T01:30:18;13.30;99.90
12700;DHT22;6414;49.570;6.060;2022-10-15T01:33:21;13.30;99.90
12700;DHT22;6414;49.570;6.060;2022-10-15T01:36:08;13.30;99.90
12700;DHT22;6414;49.570;6.060;2022-10-15T01:38:54;13.20;99.90
12700;DHT22;6414;49.570;6.060;2022-10-15T01:41:59;13.20;99.90
12700;DHT22;6414;49.570;6.060;2022-10-15T01:44:43;13.20;99.90
12700;DHT22;6414;49.570;6.060;2022-10-15T01:47:31;13.20;99.90
12700;DHT22;6414;49.570;6.060;2022-10-15T01:50:12;13.20;99.90
12700;DHT22;6414;49.570;6.060;2022-10-15T01:52:58;13.20;99.90
12700;DHT22;6414;49.570;6.060;2022-10-15T01:55:43;13.20;99.90
12700;DHT22;6414;49.570;6.060;2022-10-15T01:58:29;13.10;99.90
12700;DHT22;6414;49.570;6.060;2022-10-15T02:01:14;13.20;99.90
12700;DHT22;6414;49.570;6.060;2022-10-15T02:04:00;13.20;99.90
12700;DHT22;6414;49.570;6.060;2022-10-15T02:06:45;13.10;99.90
12700;DHT22;6414;49.570;6.060;2022-10-15T02:18:19;13.00;99.90
12700;DHT22;6414;49.570;6.060;2022-10-15T02:21:27;13.10;99.90
12700;DHT22;6414;49.570;6.060;2022-10-15T02:26:51;13.00;99.90
12700;DHT22;6414;49.570;6.060;2022-10-15T02:29:37;13.00;99.90
12700;DHT22;6414;49.570;6.060;2022-10-15T02:32:22;13.00;99.90
12700;DHT22;6414;49.570;6.060;2022-10-15T02:35:07;13.00;99.90
12700;DHT22;6414;49.570;6.060;2022-10-15T02:37:53;12.90;99.90
12700;DHT22;6414;49.570;6.060;2022-10-15T02:40:38;12.90;99.90
12700;DHT22;6414;49.570;6.060;2022-10-15T02:43:23;12.90;99.90
12700;DHT22;6414;49.570;6.060;2022-10-15T02:46:09;13.00;99.90
12700;DHT22;6414;49.570;6.060;2022-10-15T02:48:54;13.00;99.90
12700;DHT22;6414;49.570;6.060;2022-10-15T02:51:39;13.00;99.90
12700;DHT22;6414;49.570;6.060;2022-10-15T02:54:25;12.90;99.90
12700;DHT22;6414;49.570;6.060;2022-10-15T02:57:10;13.00;99.90
12700;DHT22;6414;49.570;6.060;2022-10-15T02:59:55;13.00;99.90
12700;DHT22;6414;49.570;6.060;2022-10-15T03:02:42;13.00;99.90
12700;DHT22;6414;49.570;6.060;2022-10-15T03:05:27;13.00;99.90
12700;DHT22;6414;49.570;6.060;2022-10-15T03:08:13;12.90;99.90
12700;DHT22;6414;49.570;6.060;2022-10-15T03:11:01;12.90;99.90
12700;DHT22;6414;49.570;6.060;2022-10-15T03:13:46;12.90;99.90
12700;DHT22;6414;49.570;6.060;2022-10-15T03:16:33;13.00;99.90
12700;DHT22;6414;49.570;6.060;2022-10-15T03:19:18;13.00;99.90
12700;DHT22;6414;49.570;6.060;2022-10-15T03:22:03;13.00;99.90
12700;DHT22;6414;49.570;6.060;2022-10-15T03:24:49;13.00;99.90
12700;DHT22;6414;49.570;6.060;2022-10-15T03:27:34;12.90;99.90
12700;DHT22;6414;49.570;6.060;2022-10-15T03:30:20;13.00;99.90
12700;DHT22;6414;49.570;6.060;2022-10-15T03:33:05;12.90;99.90
12700;DHT22;6414;49.570;6.060;2022-10-15T03:35:51;12.90;99.90
12700;DHT22;6414;49.570;6.060;2022-10-15T03:38:36;13.00;99.90
12700;DHT22;6414;49.570;6.060;2022-10-15T03:41:21;13.00;99.90
12700;DHT22;6414;49.570;6.060;2022-10-15T03:44:07;13.00;99.90
12700;DHT22;6414;49.570;6.060;2022-10-15T03:46:52;13.00;99.90
12700;DHT22;6414;49.570;6.060;2022-10-15T03:49:37;13.00;99.90
12700;DHT22;6414;49.570;6.060;2022-10-15T03:52:23;12.90;99.90
12700;DHT22;6414;49.570;6.060;2022-10-15T03:55:08;12.90;99.90
12700;DHT22;6414;49.570;6.060;2022-10-15T03:57:53;12.90;99.90
12700;DHT22;6414;49.570;6.060;2022-10-15T04:00:42;12.80;99.90
12700;DHT22;6414;49.570;6.060;2022-10-15T04:03:27;12.80;99.90
12700;DHT22;6414;49.570;6.060;2022-10-15T04:06:13;12.80;99.90
12700;DHT22;6414;49.570;6.060;2022-10-15T04:08:58;12.80;99.90
12700;DHT22;6414;49.570;6.060;2022-10-15T04:11:44;12.80;99.90
12700;DHT22;6414;49.570;6.060;2022-10-15T04:14:29;12.80;99.90
12700;DHT22;6414;49.570;6.060;2022-10-15T04:17:15;12.70;99.90
12700;DHT22;6414;49.570;6.060;2022-10-15T04:20:01;12.70;99.90
12700;DHT22;6414;49.570;6.060;2022-10-15T04:22:46;12.70;99.90
12700;DHT22;6414;49.570;6.060;2022-10-15T04:25:32;12.80;99.90
12700;DHT22;6414;49.570;6.060;2022-10-15T04:28:18;12.80;99.90
12700;DHT22;6414;49.570;6.060;2022-10-15T04:31:03;12.70;99.90
12700;DHT22;6414;49.570;6.060;2022-10-15T04:33:48;12.70;99.90
12700;DHT22;6414;49.570;6.060;2022-10-15T04:36:34;12.60;99.90
12700;DHT22;6414;49.570;6.060;2022-10-15T04:39:19;12.60;99.90
12700;DHT22;6414;49.570;6.060;2022-10-15T04:42:04;12.60;99.90
12700;DHT22;6414;49.570;6.060;2022-10-15T04:44:50;12.60;99.90
12700;DHT22;6414;49.570;6.060;2022-10-15T04:47:35;12.50;99.90
12700;DHT22;6414;49.570;6.060;2022-10-15T04:50:21;12.50;99.90
12700;DHT22;6414;49.570;6.060;2022-10-15T04:53:06;12.50;99.90
12700;DHT22;6414;49.570;6.060;2022-10-15T04:55:52;12.50;99.90
12700;DHT22;6414;49.570;6.060;2022-10-15T04:58:37;12.50;99.90
12700;DHT22;6414;49.570;6.060;2022-10-15T05:01:23;12.50;99.90
12700;DHT22;6414;49.570;6.060;2022-10-15T05:04:09;12.60;99.90
12700;DHT22;6414;49.570;6.060;2022-10-15T05:06:53;12.60;99.90
12700;DHT22;6414;49.570;6.060;2022-10-15T05:09:39;12.50;99.90
12700;DHT22;6414;49.570;6.060;2022-10-15T05:12:24;12.50;99.90
12700;DHT22;6414;49.570;6.060;2022-10-15T05:15:09;12.50;99.90
12700;DHT22;6414;49.570;6.060;2022-10-15T05:17:56;12.50;99.90
12700;DHT22;6414;49.570;6.060;2022-10-15T05:20:42;12.60;99.90
12700;DHT22;6414;49.570;6.060;2022-10-15T05:23:27;12.50;99.90
12700;DHT22;6414;49.570;6.060;2022-10-15T05:26:13;12.50;99.90
12700;DHT22;6414;49.570;6.060;2022-10-15T05:28:59;12.50;99.90
12700;DHT22;6414;49.570;6.060;2022-10-15T05:31:44;12.60;99.90
12700;DHT22;6414;49.570;6.060;2022-10-15T05:34:29;12.50;99.90
12700;DHT22;6414;49.570;6.060;2022-10-15T05:37:15;12.50;99.90
12700;DHT22;6414;49.570;6.060;2022-10-15T05:40:01;12.50;99.90
12700;DHT22;6414;49.570;6.060;2022-10-15T05:42:49;12.50;99.90
12700;DHT22;6414;49.570;6.060;2022-10-15T05:45:31;12.50;99.90
12700;DHT22;6414;49.570;6.060;2022-10-15T05:48:16;12.50;99.90
12700;DHT22;6414;49.570;6.060;2022-10-15T05:51:03;12.60;99.90
12700;DHT22;6414;49.570;6.060;2022-10-15T05:53:50;12.70;99.90
12700;DHT22;6414;49.570;6.060;2022-10-15T05:56:33;12.60;99.90
12700;DHT22;6414;49.570;6.060;2022-10-15T05:59:18;12.60;99.90
12700;DHT22;6414;49.570;6.060;2022-10-15T06:02:04;12.60;99.90
12700;DHT22;6414;49.570;6.060;2022-10-15T06:04:49;12.60;99.90
12700;DHT22;6414;49.570;6.060;2022-10-15T06:07:34;12.60;99.90
12700;DHT22;6414;49.570;6.060;2022-10-15T06:10:20;12.60;99.90
12700;DHT22;6414;49.570;6.060;2022-10-15T06:13:05;12.60;99.90
12700;DHT22;6414;49.570;6.060;2022-10-15T06:15:51;12.60;99.90
12700;DHT22;6414;49.570;6.060;2022-10-15T06:18:36;12.60;99.90
12700;DHT22;6414;49.570;6.060;2022-10-15T06:21:21;12.60;99.90
12700;DHT22;6414;49.570;6.060;2022-10-15T06:24:07;12.60;99.90
12700;DHT22;6414;49.570;6.060;2022-10-15T06:26:52;12.60;99.90
12700;DHT22;6414;49.570;6.060;2022-10-15T06:29:38;12.60;99.90
12700;DHT22;6414;49.570;6.060;2022-10-15T06:32:23;12.60;99.90
12700;DHT22;6414;49.570;6.060;2022-10-15T06:35:08;12.60;99.90
12700;DHT22;6414;49.570;6.060;2022-10-15T06:37:54;12.60;99.90
12700;DHT22;6414;49.570;6.060;2022-10-15T06:40:40;12.70;99.90
12700;DHT22;6414;49.570;6.060;2022-10-15T06:43:26;12.70;99.90
12700;DHT22;6414;49.570;6.060;2022-10-15T06:46:11;12.70;99.90
12700;DHT22;6414;49.570;6.060;2022-10-15T06:48:56;12.70;99.90
12700;DHT22;6414;49.570;6.060;2022-10-15T06:51:42;12.70;99.90
12700;DHT22;6414;49.570;6.060;2022-10-15T06:54:27;12.70;99.90
12700;DHT22;6414;49.570;6.060;2022-10-15T06:57:12;12.70;99.90
12700;DHT22;6414;49.570;6.060;2022-10-15T06:59:57;12.70;99.90
12700;DHT22;6414;49.570;6.060;2022-10-15T07:02:43;12.70;99.90
12700;DHT22;6414;49.570;6.060;2022-10-15T07:05:28;12.80;99.90
12700;DHT22;6414;49.570;6.060;2022-10-15T07:08:13;12.80;99.90
12700;DHT22;6414;49.570;6.060;2022-10-15T07:11:02;12.80;99.90
12700;DHT22;6414;49.570;6.060;2022-10-15T07:13:47;12.80;99.90
12700;DHT22;6414;49.570;6.060;2022-10-15T07:16:32;12.80;99.90
12700;DHT22;6414;49.570;6.060;2022-10-15T07:19:17;12.90;99.90
12700;DHT22;6414;49.570;6.060;2022-10-15T07:22:03;12.80;99.90
12700;DHT22;6414;49.570;6.060;2022-10-15T07:24:48;12.80;99.90
12700;DHT22;6414;49.570;6.060;2022-10-15T07:27:33;12.90;99.90
12700;DHT22;6414;49.570;6.060;2022-10-15T07:30:19;12.90;99.90
12700;DHT22;6414;49.570;6.060;2022-10-15T07:33:04;12.90;99.90
12700;DHT22;6414;49.570;6.060;2022-10-15T07:35:49;13.00;99.90
12700;DHT22;6414;49.570;6.060;2022-10-15T07:38:35;13.00;99.90
12700;DHT22;6414;49.570;6.060;2022-10-15T07:41:21;13.00;99.90
12700;DHT22;6414;49.570;6.060;2022-10-15T07:44:06;13.00;99.90
12700;DHT22;6414;49.570;6.060;2022-10-15T07:46:51;13.00;99.90
12700;DHT22;6414;49.570;6.060;2022-10-15T07:49:36;13.00;99.90
12700;DHT22;6414;49.570;6.060;2022-10-15T07:52:21;13.10;99.90
12700;DHT22;6414;49.570;6.060;2022-10-15T07:55:07;13.20;99.90
12700;DHT22;6414;49.570;6.060;2022-10-15T07:57:55;13.30;99.90
12700;DHT22;6414;49.570;6.060;2022-10-15T08:00:37;13.40;99.90
12700;DHT22;6414;49.570;6.060;2022-10-15T08:03:22;13.40;99.90
12700;DHT22;6414;49.570;6.060;2022-10-15T08:06:09;13.50;99.90
12700;DHT22;6414;49.570;6.060;2022-10-15T08:08:54;13.50;99.90
12700;DHT22;6414;49.570;6.060;2022-10-15T08:11:39;13.50;99.90
12700;DHT22;6414;49.570;6.060;2022-10-15T08:14:25;13.50;99.90
12700;DHT22;6414;49.570;6.060;2022-10-15T08:17:11;13.60;99.90
12700;DHT22;6414;49.570;6.060;2022-10-15T08:19:56;13.60;99.90
12700;DHT22;6414;49.570;6.060;2022-10-15T08:22:42;13.60;99.90
12700;DHT22;6414;49.570;6.060;2022-10-15T08:25:27;13.70;99.90
12700;DHT22;6414;49.570;6.060;2022-10-15T08:28:12;13.70;99.90
12700;DHT22;6414;49.570;6.060;2022-10-15T08:30:58;13.80;99.90
12700;DHT22;6414;49.570;6.060;2022-10-15T08:33:43;13.80;99.90
12700;DHT22;6414;49.570;6.060;2022-10-15T08:36:28;13.90;99.90
12700;DHT22;6414;49.570;6.060;2022-10-15T08:39:13;13.90;99.90
12700;DHT22;6414;49.570;6.060;2022-10-15T08:42:00;13.90;99.90
12700;DHT22;6414;49.570;6.060;2022-10-15T08:44:50;14.00;99.90
12700;DHT22;6414;49.570;6.060;2022-10-15T08:53:21;14.20;99.90
12700;DHT22;6414;49.570;6.060;2022-10-15T08:56:11;14.20;99.90
12700;DHT22;6414;49.570;6.060;2022-10-15T09:05:02;14.20;99.90
12700;DHT22;6414;49.570;6.060;2022-10-15T09:07:47;14.30;99.90
12700;DHT22;6414;49.570;6.060;2022-10-15T09:10:43;14.30;99.90
12700;DHT22;6414;49.570;6.060;2022-10-15T09:13:38;14.40;99.90
12700;DHT22;6414;49.570;6.060;2022-10-15T09:16:33;14.50;99.90
12700;DHT22;6414;49.570;6.060;2022-10-15T09:19:15;14.40;99.90
12700;DHT22;6414;49.570;6.060;2022-10-15T09:22:00;14.60;99.90
12700;DHT22;6414;49.570;6.060;2022-10-15T09:24:45;14.60;99.90
12700;DHT22;6414;49.570;6.060;2022-10-15T09:27:33;14.60;99.90
12700;DHT22;6414;49.570;6.060;2022-10-15T09:30:38;14.60;99.90
12700;DHT22;6414;49.570;6.060;2022-10-15T09:36:16;14.70;99.90
12700;DHT22;6414;49.570;6.060;2022-10-15T09:39:26;14.80;99.90
12700;DHT22;6414;49.570;6.060;2022-10-15T09:45:04;14.60;99.90
12700;DHT22;6414;49.570;6.060;2022-10-15T09:47:48;14.70;99.90
12700;DHT22;6414;49.570;6.060;2022-10-15T09:50:41;14.70;99.90
12700;DHT22;6414;49.570;6.060;2022-10-15T09:56:19;14.90;99.90
12700;DHT22;6414;49.570;6.060;2022-10-15T09:59:05;15.00;99.90
12700;DHT22;6414;49.570;6.060;2022-10-15T10:02:03;15.00;99.90
12700;DHT22;6414;49.570;6.060;2022-10-15T10:04:47;15.00;99.90
12700;DHT22;6414;49.570;6.060;2022-10-15T10:07:33;14.80;99.90
12700;DHT22;6414;49.570;6.060;2022-10-15T10:10:27;14.90;99.90
12700;DHT22;6414;49.570;6.060;2022-10-15T10:13:24;14.90;99.90
12700;DHT22;6414;49.570;6.060;2022-10-15T10:16:10;14.90;99.90
12700;DHT22;6414;49.570;6.060;2022-10-15T10:19:11;14.90;99.90
12700;DHT22;6414;49.570;6.060;2022-10-15T10:22:05;14.90;99.90
12700;DHT22;6414;49.570;6.060;2022-10-15T10:24:41;14.90;99.90
12700;DHT22;6414;49.570;6.060;2022-10-15T10:27:28;15.00;99.90
12700;DHT22;6414;49.570;6.060;2022-10-15T10:30:12;15.10;99.90
12700;DHT22;6414;49.570;6.060;2022-10-15T10:32:57;15.00;99.90
12700;DHT22;6414;49.570;6.060;2022-10-15T10:35:47;15.10;99.90
12700;DHT22;6414;49.570;6.060;2022-10-15T10:38:33;14.90;99.90
12700;DHT22;6414;49.570;6.060;2022-10-15T10:41:18;15.00;99.90
12700;DHT22;6414;49.570;6.060;2022-10-15T10:44:16;15.20;99.90
12700;DHT22;6414;49.570;6.060;2022-10-15T10:47:14;15.20;99.90
12700;DHT22;6414;49.570;6.060;2022-10-15T10:49:59;15.30;99.90
12700;DHT22;6414;49.570;6.060;2022-10-15T10:52:44;15.30;99.90
12700;DHT22;6414;49.570;6.060;2022-10-15T10:55:36;15.20;99.90
12700;DHT22;6414;49.570;6.060;2022-10-15T10:58:21;15.30;99.90
12700;DHT22;6414;49.570;6.060;2022-10-15T11:01:10;15.20;99.90
12700;DHT22;6414;49.570;6.060;2022-10-15T11:03:54;15.30;99.90
12700;DHT22;6414;49.570;6.060;2022-10-15T11:06:45;15.20;99.90
12700;DHT22;6414;49.570;6.060;2022-10-15T11:09:47;15.20;99.90
12700;DHT22;6414;49.570;6.060;2022-10-15T11:12:47;15.30;99.90
12700;DHT22;6414;49.570;6.060;2022-10-15T11:18:32;15.30;99.90
12700;DHT22;6414;49.570;6.060;2022-10-15T11:24:15;15.30;99.90
12700;DHT22;6414;49.570;6.060;2022-10-15T11:27:15;15.20;99.90
12700;DHT22;6414;49.570;6.060;2022-10-15T11:32:52;15.30;99.90
12700;DHT22;6414;49.570;6.060;2022-10-15T11:38:50;15.30;99.90
12700;DHT22;6414;49.570;6.060;2022-10-15T11:42:04;15.40;99.90
12700;DHT22;6414;49.570;6.060;2022-10-15T11:45:10;15.30;99.90
12700;DHT22;6414;49.570;6.060;2022-10-15T11:51:00;15.30;99.90
12700;DHT22;6414;49.570;6.060;2022-10-15T11:54:20;15.30;99.90
12700;DHT22;6414;49.570;6.060;2022-10-15T11:57:02;15.20;99.90
12700;DHT22;6414;49.570;6.060;2022-10-15T12:00:01;15.30;99.90
12700;DHT22;6414;49.570;6.060;2022-10-15T12:02:45;15.30;99.90
12700;DHT22;6414;49.570;6.060;2022-10-15T12:05:44;15.30;99.90
12700;DHT22;6414;49.570;6.060;2022-10-15T12:08:29;15.30;99.90
12700;DHT22;6414;49.570;6.060;2022-10-15T12:11:46;15.40;99.90
12700;DHT22;6414;49.570;6.060;2022-10-15T12:15:02;15.50;99.90
12700;DHT22;6414;49.570;6.060;2022-10-15T12:20:30;15.40;99.90
12700;DHT22;6414;49.570;6.060;2022-10-15T12:23:40;15.40;99.90
12700;DHT22;6414;49.570;6.060;2022-10-15T12:26:29;15.40;99.90
12700;DHT22;6414;49.570;6.060;2022-10-15T12:29:18;15.50;99.90
12700;DHT22;6414;49.570;6.060;2022-10-15T12:32:02;15.60;99.90
12700;DHT22;6414;49.570;6.060;2022-10-15T12:34:48;15.60;99.90
12700;DHT22;6414;49.570;6.060;2022-10-15T12:37:33;15.50;99.90
12700;DHT22;6414;49.570;6.060;2022-10-15T12:43:15;15.70;99.90
12700;DHT22;6414;49.570;6.060;2022-10-15T12:46:00;15.70;99.90
12700;DHT22;6414;49.570;6.060;2022-10-15T12:48:45;15.70;99.90
12700;DHT22;6414;49.570;6.060;2022-10-15T12:51:30;15.70;99.90
12700;DHT22;6414;49.570;6.060;2022-10-15T12:54:41;15.70;99.90
12700;DHT22;6414;49.570;6.060;2022-10-15T13:00:29;15.70;99.90
12700;DHT22;6414;49.570;6.060;2022-10-15T13:03:15;15.80;99.90
12700;DHT22;6414;49.570;6.060;2022-10-15T13:06:12;15.70;99.90
12700;DHT22;6414;49.570;6.060;2022-10-15T13:11:52;15.60;99.90
12700;DHT22;6414;49.570;6.060;2022-10-15T13:14:40;15.60;99.90
12700;DHT22;6414;49.570;6.060;2022-10-15T13:17:25;15.50;99.90
12700;DHT22;6414;49.570;6.060;2022-10-15T13:20:31;15.50;99.90
12700;DHT22;6414;49.570;6.060;2022-10-15T13:23:19;15.50;99.90
12700;DHT22;6414;49.570;6.060;2022-10-15T13:26:15;15.60;99.90
12700;DHT22;6414;49.570;6.060;2022-10-15T13:28:58;15.70;99.90
12700;DHT22;6414;49.570;6.060;2022-10-15T13:31:43;15.70;99.90
12700;DHT22;6414;49.570;6.060;2022-10-15T13:34:32;15.80;99.90
12700;DHT22;6414;49.570;6.060;2022-10-15T13:37:18;15.70;99.90
12700;DHT22;6414;49.570;6.060;2022-10-15T13:40:02;15.70;99.90
12700;DHT22;6414;49.570;6.060;2022-10-15T13:42:57;15.70;99.90
12700;DHT22;6414;49.570;6.060;2022-10-15T13:45:55;15.70;99.90
12700;DHT22;6414;49.570;6.060;2022-10-15T13:48:40;15.80;99.90
12700;DHT22;6414;49.570;6.060;2022-10-15T13:51:33;15.70;99.90
12700;DHT22;6414;49.570;6.060;2022-10-15T13:54:21;15.80;99.90
12700;DHT22;6414;49.570;6.060;2022-10-15T13:57:08;15.70;99.90
12700;DHT22;6414;49.570;6.060;2022-10-15T13:59:51;15.60;99.90
12700;DHT22;6414;49.570;6.060;2022-10-15T14:02:39;15.60;99.90
12700;DHT22;6414;49.570;6.060;2022-10-15T14:05:25;15.60;99.90
12700;DHT22;6414;49.570;6.060;2022-10-15T14:08:17;15.60;99.90
12700;DHT22;6414;49.570;6.060;2022-10-15T14:11:01;15.60;99.90
12700;DHT22;6414;49.570;6.060;2022-10-15T14:13:47;15.50;99.90
12700;DHT22;6414;49.570;6.060;2022-10-15T14:16:39;15.50;99.90
12700;DHT22;6414;49.570;6.060;2022-10-15T14:19:20;15.50;99.90
12700;DHT22;6414;49.570;6.060;2022-10-15T14:22:05;15.40;99.90
12700;DHT22;6414;49.570;6.060;2022-10-15T14:24:51;15.40;99.90
12700;DHT22;6414;49.570;6.060;2022-10-15T14:27:37;15.50;99.90
12700;DHT22;6414;49.570;6.060;2022-10-15T14:30:31;15.60;99.90
12700;DHT22;6414;49.570;6.060;2022-10-15T14:36:21;15.60;99.90
12700;DHT22;6414;49.570;6.060;2022-10-15T14:39:25;15.60;99.90
12700;DHT22;6414;49.570;6.060;2022-10-15T14:42:25;15.60;99.90
12700;DHT22;6414;49.570;6.060;2022-10-15T14:48:25;15.60;99.90
12700;DHT22;6414;49.570;6.060;2022-10-15T14:50:48;15.60;99.90
12700;DHT22;6414;49.570;6.060;2022-10-15T14:53:37;15.70;99.90
12700;DHT22;6414;49.570;6.060;2022-10-15T14:56:22;15.60;99.90
12700;DHT22;6414;49.570;6.060;2022-10-15T14:59:12;15.60;99.90
12700;DHT22;6414;49.570;6.060;2022-10-15T15:01:53;15.60;99.90
12700;DHT22;6414;49.570;6.060;2022-10-15T15:04:42;15.60;99.90
12700;DHT22;6414;49.570;6.060;2022-10-15T15:07:26;15.60;99.90
12700;DHT22;6414;49.570;6.060;2022-10-15T15:10:12;15.60;99.90
12700;DHT22;6414;49.570;6.060;2022-10-15T15:12:57;15.60;99.90
12700;DHT22;6414;49.570;6.060;2022-10-15T15:15:43;15.60;99.90
12700;DHT22;6414;49.570;6.060;2022-10-15T15:18:29;15.50;99.90
12700;DHT22;6414;49.570;6.060;2022-10-15T15:21:16;15.50;99.90
12700;DHT22;6414;49.570;6.060;2022-10-15T15:24:01;15.60;99.90
12700;DHT22;6414;49.570;6.060;2022-10-15T15:26:46;15.60;99.90
12700;DHT22;6414;49.570;6.060;2022-10-15T15:29:31;15.50;99.90
12700;DHT22;6414;49.570;6.060;2022-10-15T15:32:17;15.50;99.90
12700;DHT22;6414;49.570;6.060;2022-10-15T15:35:04;15.50;99.90
12700;DHT22;6414;49.570;6.060;2022-10-15T15:37:47;15.50;99.90
12700;DHT22;6414;49.570;6.060;2022-10-15T15:40:33;15.40;99.90
12700;DHT22;6414;49.570;6.060;2022-10-15T15:43:18;15.40;99.90
12700;DHT22;6414;49.570;6.060;2022-10-15T15:46:03;15.30;99.90
12700;DHT22;6414;49.570;6.060;2022-10-15T15:48:48;15.30;99.90
12700;DHT22;6414;49.570;6.060;2022-10-15T15:51:34;15.30;99.90
12700;DHT22;6414;49.570;6.060;2022-10-15T15:54:19;15.30;99.90
12700;DHT22;6414;49.570;6.060;2022-10-15T15:57:05;15.20;99.90
12700;DHT22;6414;49.570;6.060;2022-10-15T15:59:50;15.20;99.90
12700;DHT22;6414;49.570;6.060;2022-10-15T16:02:36;15.10;99.90
12700;DHT22;6414;49.570;6.060;2022-10-15T16:05:21;15.10;99.90
12700;DHT22;6414;49.570;6.060;2022-10-15T16:08:07;15.10;99.90
12700;DHT22;6414;49.570;6.060;2022-10-15T16:10:51;15.10;99.90
12700;DHT22;6414;49.570;6.060;2022-10-15T16:13:37;15.10;99.90
12700;DHT22;6414;49.570;6.060;2022-10-15T16:16:22;15.00;99.90
12700;DHT22;6414;49.570;6.060;2022-10-15T16:19:07;15.00;99.90
12700;DHT22;6414;49.570;6.060;2022-10-15T16:21:53;15.00;99.90
12700;DHT22;6414;49.570;6.060;2022-10-15T16:24:39;15.00;99.90
12700;DHT22;6414;49.570;6.060;2022-10-15T16:27:24;14.90;99.90
12700;DHT22;6414;49.570;6.060;2022-10-15T16:30:10;14.90;99.90
12700;DHT22;6414;49.570;6.060;2022-10-15T16:32:56;14.90;99.90
12700;DHT22;6414;49.570;6.060;2022-10-15T16:35:42;14.90;99.90
12700;DHT22;6414;49.570;6.060;2022-10-15T16:38:27;14.90;99.90
12700;DHT22;6414;49.570;6.060;2022-10-15T16:41:13;14.80;99.90
12700;DHT22;6414;49.570;6.060;2022-10-15T16:43:58;14.80;99.90
12700;DHT22;6414;49.570;6.060;2022-10-15T16:46:44;14.80;99.90
12700;DHT22;6414;49.570;6.060;2022-10-15T16:49:29;14.80;99.90
12700;DHT22;6414;49.570;6.060;2022-10-15T16:52:15;14.80;99.90
12700;DHT22;6414;49.570;6.060;2022-10-15T16:55:00;14.70;99.90
12700;DHT22;6414;49.570;6.060;2022-10-15T16:57:45;14.80;99.90
12700;DHT22;6414;49.570;6.060;2022-10-15T17:00:31;14.80;99.90
12700;DHT22;6414;49.570;6.060;2022-10-15T17:03:16;14.80;99.90
12700;DHT22;6414;49.570;6.060;2022-10-15T17:06:03;14.70;99.90
12700;DHT22;6414;49.570;6.060;2022-10-15T17:08:53;14.70;99.90
12700;DHT22;6414;49.570;6.060;2022-10-15T17:11:39;14.70;99.90
12700;DHT22;6414;49.570;6.060;2022-10-15T17:14:23;14.70;99.90
12700;DHT22;6414;49.570;6.060;2022-10-15T17:17:10;14.70;99.90
12700;DHT22;6414;49.570;6.060;2022-10-15T17:19:55;14.70;99.90
12700;DHT22;6414;49.570;6.060;2022-10-15T17:22:41;14.70;99.90
12700;DHT22;6414;49.570;6.060;2022-10-15T17:25:26;14.70;99.90
12700;DHT22;6414;49.570;6.060;2022-10-15T17:28:12;14.70;99.90
12700;DHT22;6414;49.570;6.060;2022-10-15T17:31:04;14.70;99.90
12700;DHT22;6414;49.570;6.060;2022-10-15T17:33:53;14.70;99.90
12700;DHT22;6414;49.570;6.060;2022-10-15T17:36:35;14.70;99.90
12700;DHT22;6414;49.570;6.060;2022-10-15T17:39:20;14.60;99.90
12700;DHT22;6414;49.570;6.060;2022-10-15T17:42:06;14.60;99.90
12700;DHT22;6414;49.570;6.060;2022-10-15T17:44:51;14.60;99.90
12700;DHT22;6414;49.570;6.060;2022-10-15T17:47:39;14.60;99.90
12700;DHT22;6414;49.570;6.060;2022-10-15T17:50:25;14.60;99.90
12700;DHT22;6414;49.570;6.060;2022-10-15T17:53:10;14.50;99.90
12700;DHT22;6414;49.570;6.060;2022-10-15T17:55:56;14.50;99.90
12700;DHT22;6414;49.570;6.060;2022-10-15T17:58:41;14.50;99.90
12700;DHT22;6414;49.570;6.060;2022-10-15T18:01:31;14.50;99.90
12700;DHT22;6414;49.570;6.060;2022-10-15T18:04:14;14.50;99.90
12700;DHT22;6414;49.570;6.060;2022-10-15T18:07:00;14.40;99.90
12700;DHT22;6414;49.570;6.060;2022-10-15T18:09:46;14.40;99.90
12700;DHT22;6414;49.570;6.060;2022-10-15T18:12:31;14.40;99.90
12700;DHT22;6414;49.570;6.060;2022-10-15T18:15:17;14.40;99.90
12700;DHT22;6414;49.570;6.060;2022-10-15T18:18:02;14.40;99.90
12700;DHT22;6414;49.570;6.060;2022-10-15T18:20:48;14.30;99.90
12700;DHT22;6414;49.570;6.060;2022-10-15T18:23:33;14.30;99.90
12700;DHT22;6414;49.570;6.060;2022-10-15T18:26:20;14.30;99.90
12700;DHT22;6414;49.570;6.060;2022-10-15T18:29:04;14.30;99.90
12700;DHT22;6414;49.570;6.060;2022-10-15T18:31:50;14.20;99.90
12700;DHT22;6414;49.570;6.060;2022-10-15T18:34:35;14.20;99.90
12700;DHT22;6414;49.570;6.060;2022-10-15T18:37:25;14.20;99.90
12700;DHT22;6414;49.570;6.060;2022-10-15T18:40:10;14.20;99.90
12700;DHT22;6414;49.570;6.060;2022-10-15T18:42:55;14.20;99.90
12700;DHT22;6414;49.570;6.060;2022-10-15T18:45:42;14.10;99.90
12700;DHT22;6414;49.570;6.060;2022-10-15T18:48:28;14.10;99.90
12700;DHT22;6414;49.570;6.060;2022-10-15T18:51:13;14.10;99.90
12700;DHT22;6414;49.570;6.060;2022-10-15T18:53:59;14.10;99.90
12700;DHT22;6414;49.570;6.060;2022-10-15T18:56:46;14.20;99.90
12700;DHT22;6414;49.570;6.060;2022-10-15T18:59:31;14.20;99.90